createdAt,value
2023-04-19T00:01:08.951Z,8.74
2023-04-19T00:03:35.861Z,8.78
2023-04-19T00:06:09.818Z,8.81
2023-04-19T00:08:36.552Z,8.82
2023-04-19T00:11:09.848Z,8.83
2023-04-19T00:13:49.890Z,8.82
2023-04-19T00:16:17.319Z,8.86
2023-04-19T00:18:50.845Z,8.85
2023-04-19T00:21:23.915Z,8.87
2023-04-19T00:23:50.722Z,8.84
2023-04-19T00:26:23.855Z,8.80
2023-04-19T00:28:56.877Z,8.76
2023-04-19T00:31:29.919Z,8.73
2023-04-19T00:34:03.894Z,8.70
2023-04-19T00:36:37.988Z,8.71
2023-04-19T00:39:12.071Z,8.67
2023-04-19T00:41:38.824Z,8.63
2023-04-19T00:44:11.932Z,8.57
2023-04-19T00:46:45.979Z,8.58
2023-04-19T00:49:12.796Z,8.51
2023-04-19T00:51:45.835Z,8.53
2023-04-19T00:54:20.024Z,8.51
2023-04-19T00:57:00.050Z,8.44
2023-04-19T00:59:27.091Z,8.43
2023-04-19T01:01:59.964Z,8.45
2023-04-19T01:04:27.162Z,8.41
2023-04-19T01:07:00.972Z,8.32
2023-04-19T01:09:27.680Z,8.29
2023-04-19T01:12:00.982Z,8.33
2023-04-19T01:14:27.818Z,8.28
2023-04-19T01:17:01.038Z,8.27
2023-04-19T01:19:27.758Z,8.26
2023-04-19T01:22:02.893Z,8.23
2023-04-19T01:24:30.414Z,8.21
2023-04-19T01:27:03.877Z,8.18
2023-04-19T01:29:36.875Z,8.16
2023-04-19T01:32:03.695Z,8.14
2023-04-19T01:34:36.894Z,8.12
2023-04-19T01:37:03.766Z,8.09
2023-04-19T01:39:36.934Z,8.06
2023-04-19T01:42:04.558Z,8.08
2023-04-19T01:44:38.005Z,8.08
2023-04-19T01:47:12.027Z,8.08
2023-04-19T01:49:45.844Z,8.09
2023-04-19T01:52:12.580Z,8.08
2023-04-19T01:54:52.877Z,8.03
2023-04-19T01:57:25.917Z,8.06
2023-04-19T01:59:54.385Z,8.06
2023-04-19T02:02:28.119Z,8.03
2023-04-19T02:04:54.865Z,8.03
2023-04-19T02:07:27.888Z,8.02
2023-04-19T02:09:54.657Z,7.96
2023-04-19T02:12:27.936Z,8.00
2023-04-19T02:14:57.598Z,7.96
2023-04-19T02:17:31.985Z,7.94
2023-04-19T02:19:58.715Z,7.90
2023-04-19T02:22:31.909Z,7.92
2023-04-19T02:24:59.466Z,7.89
2023-04-19T02:27:32.924Z,7.87
2023-04-19T02:29:59.679Z,7.84
2023-04-19T02:32:34.040Z,7.81
2023-04-19T02:35:01.182Z,7.76
2023-04-19T02:37:27.975Z,7.77
2023-04-19T02:40:00.950Z,7.72
2023-04-19T02:42:27.797Z,7.73
2023-04-19T02:45:00.910Z,7.69
2023-04-19T02:47:27.648Z,7.65
2023-04-19T02:50:00.926Z,7.60
2023-04-19T02:52:34.973Z,7.57
2023-04-19T02:55:07.944Z,7.58
2023-04-19T02:57:47.958Z,7.55
2023-04-19T03:00:15.414Z,7.53
2023-04-19T03:02:49.953Z,7.53
2023-04-19T03:05:23.949Z,7.56
2023-04-19T03:07:56.955Z,7.59
2023-04-19T03:10:23.774Z,7.61
2023-04-19T03:12:56.955Z,7.60
2023-04-19T03:15:23.959Z,7.65
2023-04-19T03:17:58.034Z,7.73
2023-04-19T03:20:24.859Z,7.77
2023-04-19T03:22:57.899Z,7.81
2023-04-19T03:25:24.688Z,7.84
2023-04-19T03:27:58.907Z,7.92
2023-04-19T03:30:25.667Z,7.93
2023-04-19T03:32:59.999Z,7.98
2023-04-19T03:35:26.836Z,8.03
2023-04-19T03:37:59.911Z,8.06
2023-04-19T03:40:33.021Z,8.01
2023-04-19T03:43:05.972Z,8.10
2023-04-19T03:45:38.959Z,8.11
2023-04-19T03:48:06.106Z,8.12
2023-04-19T03:50:38.927Z,8.13
2023-04-19T03:53:06.196Z,8.12
2023-04-19T03:55:46.013Z,8.11
2023-04-19T03:58:12.842Z,8.13
2023-04-19T04:00:45.898Z,8.10
2023-04-19T04:03:12.872Z,8.09
2023-04-19T04:05:46.933Z,8.05
2023-04-19T04:08:14.364Z,8.02
2023-04-19T04:10:47.953Z,8.06
2023-04-19T04:13:21.298Z,8.05
2023-04-19T04:15:48.104Z,8.03
2023-04-19T04:18:21.969Z,8.03
2023-04-19T04:20:48.645Z,8.01
2023-04-19T04:23:21.976Z,7.93
2023-04-19T04:25:56.798Z,7.95
2023-04-19T04:28:29.997Z,7.92
2023-04-19T04:30:58.152Z,7.86
2023-04-19T04:33:33.083Z,7.83
2023-04-19T04:35:59.837Z,7.78
2023-04-19T04:38:26.733Z,7.76
2023-04-19T04:41:01.024Z,7.69
2023-04-19T04:43:36.028Z,7.61
2023-04-19T04:46:25.104Z,7.45
2023-04-19T04:49:00.136Z,7.39
2023-04-19T04:51:33.933Z,7.22
2023-04-19T04:54:01.115Z,7.18
2023-04-19T04:56:41.096Z,7.08
2023-04-19T04:59:08.246Z,6.95
2023-04-19T05:01:42.354Z,6.83
2023-04-19T05:04:09.309Z,6.76
2023-04-19T05:06:43.023Z,6.68
2023-04-19T05:09:15.977Z,6.61
2023-04-19T05:11:48.960Z,6.55
2023-04-19T05:14:16.073Z,6.47
2023-04-19T05:16:49.048Z,6.40
2023-04-19T05:19:16.174Z,6.34
2023-04-19T05:21:42.874Z,6.29
2023-04-19T05:24:17.551Z,6.27
2023-04-19T05:26:44.534Z,6.23
2023-04-19T05:29:18.044Z,6.23
2023-04-19T05:31:45.065Z,6.19
2023-04-19T05:34:21.875Z,6.18
2023-04-19T05:36:50.246Z,6.15
2023-04-19T05:39:24.082Z,6.15
2023-04-19T05:41:58.065Z,6.14
2023-04-19T05:44:31.113Z,6.08
2023-04-19T05:47:04.046Z,6.15
2023-04-19T05:49:37.054Z,6.18
2023-04-19T05:52:10.054Z,6.17
2023-04-19T05:54:44.217Z,6.16
2023-04-19T05:57:24.012Z,6.21
2023-04-19T05:59:50.821Z,6.20
2023-04-19T06:02:24.143Z,6.22
2023-04-19T06:04:51.515Z,6.25
2023-04-19T06:07:31.177Z,6.26
2023-04-19T06:10:07.040Z,6.23
2023-04-19T06:12:40.104Z,6.29
2023-04-19T06:15:07.528Z,6.31
2023-04-19T06:17:41.038Z,6.35
2023-04-19T06:20:08.635Z,6.39
2023-04-19T06:22:42.024Z,6.45
2023-04-19T06:25:15.583Z,6.51
2023-04-19T06:27:49.093Z,6.55
2023-04-19T06:30:17.883Z,6.61
2023-04-19T06:32:51.063Z,6.65
2023-04-19T06:35:25.193Z,6.65
2023-04-19T06:37:52.269Z,6.63
2023-04-19T06:40:26.089Z,6.76
2023-04-19T06:42:53.643Z,6.76
2023-04-19T06:45:27.119Z,6.80
2023-04-19T06:48:00.153Z,6.81
2023-04-19T06:50:34.137Z,6.86
2023-04-19T06:53:07.093Z,6.95
2023-04-19T06:55:40.512Z,6.98
2023-04-19T06:58:17.351Z,7.03
2023-04-19T07:00:51.178Z,7.09
2023-04-19T07:03:25.197Z,7.14
2023-04-19T07:05:56.612Z,7.10
2023-04-19T07:08:46.502Z,7.23
2023-04-19T07:11:23.093Z,7.24
2023-04-19T07:13:57.120Z,7.20
2023-04-19T07:16:24.459Z,7.33
2023-04-19T07:18:58.090Z,7.36
2023-04-19T07:21:27.382Z,7.45
2023-04-19T07:24:01.070Z,7.50
2023-04-19T07:26:27.924Z,7.60
2023-04-19T07:29:01.114Z,7.55
2023-04-19T07:31:28.558Z,7.77
2023-04-19T07:34:02.212Z,7.84
2023-04-19T07:36:29.075Z,7.79
2023-04-19T07:39:02.423Z,8.02
2023-04-19T07:41:36.465Z,8.00
2023-04-19T07:44:10.152Z,8.08
2023-04-19T07:46:44.330Z,8.10
2023-04-19T07:49:18.150Z,8.18
2023-04-19T07:51:44.970Z,8.32
2023-04-19T07:54:23.128Z,8.42
2023-04-19T07:56:57.772Z,8.45
2023-04-19T07:59:31.069Z,8.50
2023-04-19T08:01:58.135Z,8.60
2023-04-19T08:04:32.412Z,8.76
2023-04-19T08:07:06.166Z,8.69
2023-04-19T08:09:34.605Z,8.88
2023-04-19T08:12:08.059Z,8.91
2023-04-19T08:14:43.904Z,8.97
2023-04-19T08:17:32.652Z,8.94
2023-04-19T08:20:08.303Z,8.88
2023-04-19T08:22:42.149Z,9.06
2023-04-19T08:25:09.647Z,9.11
2023-04-19T08:27:43.111Z,9.17
2023-04-19T08:30:11.106Z,9.26
2023-04-19T08:32:38.478Z,9.20
2023-04-19T08:35:13.221Z,9.38
2023-04-19T08:37:47.096Z,9.35
2023-04-19T08:40:14.877Z,9.33
2023-04-19T08:42:51.138Z,9.61
2023-04-19T08:45:28.233Z,9.87
2023-04-19T08:48:01.820Z,9.90
2023-04-19T08:50:45.521Z,9.98
2023-04-19T08:53:25.947Z,10.15
2023-04-19T08:56:15.169Z,10.13
2023-04-19T09:01:34.048Z,10.49
2023-04-19T09:04:17.163Z,10.66
2023-04-19T09:07:01.115Z,10.76
2023-04-19T09:12:06.160Z,10.84
2023-04-19T09:14:32.887Z,10.84
2023-04-19T09:17:26.109Z,11.01
2023-04-19T09:19:53.021Z,11.10
2023-04-19T09:22:26.069Z,11.20
2023-04-19T09:25:30.779Z,11.22
2023-04-19T09:27:46.110Z,11.45
2023-04-19T09:30:24.100Z,11.60
2023-04-19T09:33:04.251Z,11.71
2023-04-19T09:35:49.978Z,11.75
2023-04-19T09:38:24.432Z,11.97
2023-04-19T09:40:51.483Z,12.11
2023-04-19T09:46:01.984Z,12.55
2023-04-19T09:48:28.968Z,12.74
2023-04-19T09:51:11.895Z,12.96
2023-04-19T09:53:47.279Z,13.17
2023-04-19T09:56:21.187Z,13.29
2023-04-19T09:58:51.238Z,13.34
2023-04-19T10:01:32.289Z,12.99
2023-04-19T10:04:14.487Z,13.23
2023-04-19T10:07:25.425Z,13.28
2023-04-19T10:09:54.311Z,13.21
2023-04-19T10:12:58.506Z,13.42
2023-04-19T10:15:21.931Z,13.66
2023-04-19T10:17:55.082Z,13.88
2023-04-19T10:20:41.129Z,13.85
2023-04-19T10:23:16.173Z,13.52
2023-04-19T10:25:47.584Z,13.77
2023-04-19T10:28:23.230Z,14.05
2023-04-19T10:31:08.110Z,14.13
2023-04-19T10:33:36.674Z,14.19
2023-04-19T10:36:11.132Z,14.27
2023-04-19T10:39:02.224Z,14.10
2023-04-19T10:41:59.589Z,14.20
2023-04-19T10:44:33.203Z,14.40
2023-04-19T10:47:00.259Z,14.67
2023-04-19T10:49:36.136Z,14.71
2023-04-19T10:52:28.151Z,14.36
2023-04-19T10:55:04.186Z,14.37
2023-04-19T10:58:12.269Z,14.64
2023-04-19T11:00:46.153Z,14.96
2023-04-19T11:03:50.423Z,14.92
2023-04-19T11:06:34.256Z,14.83
2023-04-19T11:09:02.927Z,14.80
2023-04-19T11:11:40.505Z,14.86
2023-04-19T11:14:09.141Z,14.90
2023-04-19T11:16:46.216Z,14.74
2023-04-19T11:19:17.702Z,14.90
2023-04-19T11:21:55.185Z,14.92
2023-04-19T11:24:22.146Z,15.08
2023-04-19T11:26:55.673Z,14.99
2023-04-19T11:29:22.626Z,14.94
2023-04-19T11:31:57.184Z,15.08
2023-04-19T11:34:24.565Z,15.34
2023-04-19T11:37:00.298Z,15.28
2023-04-19T11:39:27.629Z,15.46
2023-04-19T11:42:01.168Z,15.45
2023-04-19T11:44:27.987Z,15.62
2023-04-19T11:47:08.315Z,15.75
2023-04-19T11:49:35.283Z,15.55
2023-04-19T11:52:13.362Z,15.44
2023-04-19T11:54:40.408Z,15.34
2023-04-19T11:57:20.309Z,15.42
2023-04-19T12:00:12.548Z,15.55
2023-04-19T12:02:47.356Z,15.55
2023-04-19T12:05:17.009Z,15.69
2023-04-19T12:08:09.495Z,15.85
2023-04-19T12:10:43.320Z,15.85
2023-04-19T12:13:26.210Z,15.89
2023-04-19T12:15:53.371Z,15.80
2023-04-19T12:18:20.350Z,15.53
2023-04-19T12:20:55.237Z,15.77
2023-04-19T12:23:22.113Z,15.79
2023-04-19T12:25:56.302Z,15.66
2023-04-19T12:28:23.194Z,15.37
2023-04-19T12:30:57.236Z,15.47
2023-04-19T12:33:24.116Z,15.54
2023-04-19T12:35:57.256Z,15.59
2023-04-19T12:38:23.979Z,15.74
2023-04-19T12:40:57.188Z,15.84
2023-04-19T12:43:30.246Z,15.83
2023-04-19T12:46:03.363Z,16.08
2023-04-19T12:48:37.387Z,16.18
2023-04-19T12:51:04.414Z,16.36
2023-04-19T12:53:38.199Z,16.48
2023-04-19T12:56:25.200Z,16.25
2023-04-19T12:58:58.220Z,16.38
2023-04-19T13:01:25.190Z,16.29
2023-04-19T13:03:59.528Z,16.16
2023-04-19T13:06:26.621Z,16.23
2023-04-19T13:09:01.560Z,16.21
2023-04-19T13:11:28.531Z,16.19
2023-04-19T13:14:02.330Z,16.29
2023-04-19T13:16:35.250Z,16.27
2023-04-19T13:19:08.299Z,16.57
2023-04-19T13:21:35.021Z,16.65
2023-04-19T13:24:08.275Z,16.70
2023-04-19T13:26:41.272Z,16.80
2023-04-19T13:29:08.793Z,16.81
2023-04-19T13:31:42.362Z,16.74
2023-04-19T13:34:16.468Z,16.62
2023-04-19T13:36:43.657Z,16.55
2023-04-19T13:39:17.244Z,16.57
2023-04-19T13:41:50.284Z,16.57
2023-04-19T13:44:17.189Z,16.48
2023-04-19T13:46:50.328Z,16.50
2023-04-19T13:49:18.572Z,16.67
2023-04-19T13:51:52.280Z,16.85
2023-04-19T13:54:19.956Z,17.06
2023-04-19T13:57:00.245Z,17.15
2023-04-19T13:59:26.997Z,17.11
2023-04-19T14:02:02.413Z,17.25
2023-04-19T14:04:29.406Z,17.34
2023-04-19T14:07:03.338Z,17.54
2023-04-19T14:09:36.280Z,17.66
2023-04-19T14:12:04.708Z,17.74
2023-04-19T14:14:38.321Z,17.48
2023-04-19T14:17:05.173Z,16.93
2023-04-19T14:19:38.479Z,16.09
2023-04-19T14:22:12.272Z,16.11
2023-04-19T14:24:45.347Z,16.16
2023-04-19T14:27:18.331Z,16.09
2023-04-19T14:29:45.126Z,16.30
2023-04-19T14:32:25.883Z,16.05
2023-04-19T14:34:54.325Z,16.17
2023-04-19T14:37:29.313Z,15.90
2023-04-19T14:39:56.432Z,16.27
2023-04-19T14:42:29.349Z,15.97
2023-04-19T14:44:59.072Z,16.04
2023-04-19T14:47:32.357Z,15.92
2023-04-19T14:49:59.254Z,15.82
2023-04-19T14:52:32.355Z,15.56
2023-04-19T14:55:00.361Z,15.28
2023-04-19T14:57:49.126Z,15.09
2023-04-19T15:00:23.324Z,15.72
2023-04-19T15:03:00.582Z,16.09
2023-04-19T15:05:27.857Z,16.32
2023-04-19T15:07:54.918Z,16.10
2023-04-19T15:10:28.445Z,15.80
2023-04-19T15:12:55.835Z,15.34
2023-04-19T15:15:29.320Z,15.05
2023-04-19T15:17:56.921Z,14.78
2023-04-19T15:20:30.540Z,14.71
2023-04-19T15:22:57.346Z,15.25
2023-04-19T15:25:30.388Z,15.81
2023-04-19T15:27:57.124Z,16.06
2023-04-19T15:30:23.982Z,16.38
2023-04-19T15:32:57.481Z,16.20
2023-04-19T15:35:24.446Z,15.64
2023-04-19T15:37:57.392Z,15.19
2023-04-19T15:40:31.270Z,14.68
2023-04-19T15:43:04.352Z,14.39
2023-04-19T15:45:31.234Z,14.20
2023-04-19T15:48:04.515Z,14.50
2023-04-19T15:50:31.490Z,14.85
2023-04-19T15:53:04.383Z,15.31
2023-04-19T15:55:32.116Z,15.52
2023-04-19T15:58:13.361Z,15.25
2023-04-19T16:00:46.466Z,15.22
2023-04-19T16:03:13.427Z,14.87
2023-04-19T16:05:47.446Z,14.55
2023-04-19T16:08:24.357Z,14.17
2023-04-19T16:10:51.214Z,13.95
2023-04-19T16:13:24.411Z,13.73
2023-04-19T16:15:51.176Z,13.79
2023-04-19T16:18:24.409Z,14.02
2023-04-19T16:21:00.453Z,14.56
2023-04-19T16:23:27.187Z,14.64
2023-04-19T16:26:00.369Z,14.89
2023-04-19T16:28:27.319Z,14.69
2023-04-19T16:31:00.434Z,14.26
2023-04-19T16:33:27.304Z,13.90
2023-04-19T16:36:00.372Z,13.84
2023-04-19T16:38:27.417Z,13.79
2023-04-19T16:41:01.374Z,13.68
2023-04-19T16:43:28.140Z,13.76
2023-04-19T16:46:01.452Z,13.85
2023-04-19T16:48:28.408Z,13.77
2023-04-19T16:50:55.549Z,13.68
2023-04-19T16:53:29.387Z,13.62
2023-04-19T16:56:02.341Z,13.53
2023-04-19T16:58:42.411Z,13.52
2023-04-19T17:01:09.403Z,13.41
2023-04-19T17:03:42.572Z,13.30
2023-04-19T17:06:09.371Z,13.15
2023-04-19T17:08:45.417Z,13.15
2023-04-19T17:11:12.239Z,13.04
2023-04-19T17:13:45.326Z,12.95
2023-04-19T17:16:12.215Z,12.86
2023-04-19T17:18:45.391Z,12.78
2023-04-19T17:21:16.557Z,12.72
2023-04-19T17:23:52.504Z,12.65
2023-04-19T17:26:25.332Z,12.65
2023-04-19T17:28:52.135Z,12.56
2023-04-19T17:31:25.496Z,12.51
2023-04-19T17:33:52.382Z,12.48
2023-04-19T17:36:26.430Z,12.42
2023-04-19T17:38:56.021Z,12.36
2023-04-19T17:41:29.419Z,12.21
2023-04-19T17:43:59.348Z,12.15
2023-04-19T17:46:32.646Z,12.03
2023-04-19T17:48:59.647Z,11.99
2023-04-19T17:51:33.402Z,11.75
2023-04-19T17:54:07.518Z,11.73
2023-04-19T17:56:48.564Z,11.58
2023-04-19T17:59:30.116Z,11.66
2023-04-19T18:02:03.567Z,11.44
2023-04-19T18:04:31.242Z,11.53
2023-04-19T18:07:04.607Z,11.43
2023-04-19T18:09:35.292Z,11.37
2023-04-19T18:12:09.504Z,11.14
2023-04-19T18:14:42.508Z,10.97
2023-04-19T18:17:09.556Z,10.85
2023-04-19T18:19:44.664Z,10.98
2023-04-19T18:22:14.903Z,10.70
2023-04-19T18:24:50.701Z,10.73
2023-04-19T18:27:18.055Z,10.54
2023-04-19T18:29:51.570Z,10.53
2023-04-19T18:32:18.830Z,10.46
2023-04-19T18:34:55.208Z,10.30
2023-04-19T18:37:22.131Z,10.39
2023-04-19T18:39:48.912Z,10.15
2023-04-19T18:42:22.494Z,10.25
2023-04-19T18:44:54.390Z,10.20
2023-04-19T18:47:33.476Z,10.05
2023-04-19T18:50:05.210Z,10.01
2023-04-19T18:52:42.535Z,9.94
2023-04-19T18:55:10.997Z,9.91
2023-04-19T18:57:45.515Z,9.81
2023-04-19T19:00:20.324Z,9.69
2023-04-19T19:02:53.756Z,9.68
2023-04-19T19:05:20.937Z,9.71
2023-04-19T19:07:54.772Z,9.63
2023-04-19T19:10:22.980Z,9.47
2023-04-19T19:13:14.517Z,9.53
2023-04-19T19:15:44.803Z,9.47
2023-04-19T19:18:18.488Z,9.41
2023-04-19T19:20:45.545Z,9.48
2023-04-19T19:23:20.452Z,9.43
2023-04-19T19:25:59.509Z,9.39
2023-04-19T19:28:32.481Z,9.29
2023-04-19T19:31:05.613Z,9.25
2023-04-19T19:33:40.534Z,9.10
2023-04-19T19:36:14.570Z,9.00
2023-04-19T19:38:41.631Z,9.09
2023-04-19T19:43:45.680Z,8.99
2023-04-19T19:46:22.309Z,8.85
2023-04-19T19:48:53.435Z,8.80
2023-04-19T19:51:44.079Z,8.78
2023-04-19T19:54:14.570Z,8.76
2023-04-19T19:59:39.229Z,8.78
2023-04-19T20:02:06.802Z,8.69
2023-04-19T20:04:41.724Z,8.68
2023-04-19T20:07:32.376Z,8.69
2023-04-19T20:10:06.240Z,8.63
2023-04-19T20:12:33.415Z,8.60
2023-04-19T20:15:06.581Z,8.52
2023-04-19T20:17:34.215Z,8.43
2023-04-19T20:20:12.599Z,8.39
2023-04-19T20:22:39.581Z,8.35
2023-04-19T20:25:13.549Z,8.32
2023-04-19T20:27:40.646Z,8.32
2023-04-19T20:30:15.507Z,8.28
2023-04-19T20:32:43.065Z,8.31
2023-04-19T20:35:18.594Z,8.31
2023-04-19T20:37:47.272Z,8.28
2023-04-19T20:40:25.469Z,8.18
2023-04-19T20:42:59.367Z,8.09
2023-04-19T20:45:32.658Z,8.16
2023-04-19T20:48:06.601Z,8.07
2023-04-19T20:50:33.572Z,7.88
2023-04-19T20:53:07.550Z,8.01
2023-04-19T20:55:34.785Z,7.78
2023-04-19T20:58:15.557Z,7.84
2023-04-19T21:00:42.566Z,7.79
2023-04-19T21:03:16.729Z,7.92
2023-04-19T21:05:44.894Z,7.85
2023-04-19T21:08:18.559Z,7.75
2023-04-19T21:10:45.420Z,7.83
2023-04-19T21:13:12.205Z,7.82
2023-04-19T21:15:45.520Z,7.82
2023-04-19T21:18:12.374Z,7.81
2023-04-19T21:20:46.498Z,7.80
2023-04-19T21:23:19.520Z,7.77
2023-04-19T21:25:53.572Z,7.68
2023-04-19T21:28:20.655Z,7.61
2023-04-19T21:30:54.579Z,7.67
2023-04-19T21:33:27.926Z,7.63
2023-04-19T21:36:01.577Z,7.68
2023-04-19T21:38:28.675Z,7.60
2023-04-19T21:41:02.502Z,7.63
2023-04-19T21:43:31.796Z,7.43
2023-04-19T21:46:05.620Z,7.51
2023-04-19T21:48:39.505Z,7.39
2023-04-19T21:51:13.516Z,7.41
2023-04-19T21:53:40.890Z,7.19
2023-04-19T21:56:07.951Z,7.33
2023-04-19T21:58:44.511Z,7.27
2023-04-19T22:01:11.902Z,7.09
2023-04-19T22:03:45.810Z,7.05
2023-04-19T22:06:14.166Z,7.04
2023-04-19T22:08:48.514Z,6.97
2023-04-19T22:11:15.788Z,6.94
2023-04-19T22:13:49.466Z,6.83
2023-04-19T22:16:16.332Z,6.70
2023-04-19T22:18:49.560Z,6.63
2023-04-19T22:21:22.519Z,6.55
2023-04-19T22:23:49.308Z,6.43
2023-04-19T22:26:22.546Z,6.35
2023-04-19T22:28:49.340Z,6.23
2023-04-19T22:31:22.578Z,6.13
2023-04-19T22:33:49.263Z,6.00
2023-04-19T22:36:22.532Z,5.95
2023-04-19T22:38:49.578Z,5.85
2023-04-19T22:41:22.513Z,5.76
2023-04-19T22:43:49.342Z,5.69
2023-04-19T22:46:22.585Z,5.66
2023-04-19T22:48:58.455Z,5.53
2023-04-19T22:51:31.507Z,5.54
2023-04-19T22:53:58.431Z,5.53
2023-04-19T22:56:25.265Z,5.53
2023-04-19T22:58:58.542Z,5.47
2023-04-19T23:01:25.272Z,5.44
2023-04-19T23:03:58.521Z,5.34
2023-04-19T23:06:31.789Z,5.26
2023-04-19T23:09:07.572Z,5.20
2023-04-19T23:11:41.712Z,5.11
2023-04-19T23:14:17.603Z,5.03
2023-04-19T23:16:52.689Z,5.00
2023-04-19T23:19:19.970Z,4.94
2023-04-19T23:21:53.600Z,4.88
2023-04-19T23:24:26.595Z,4.90
2023-04-19T23:26:53.272Z,4.84
2023-04-19T23:29:26.494Z,4.86
2023-04-19T23:32:00.538Z,4.82
2023-04-19T23:34:33.556Z,4.76
2023-04-19T23:37:06.543Z,4.75
2023-04-19T23:39:33.287Z,4.69
2023-04-19T23:42:06.569Z,4.68
2023-04-19T23:44:33.403Z,4.68
2023-04-19T23:47:06.553Z,4.69
2023-04-19T23:49:40.613Z,4.71
2023-04-19T23:52:07.465Z,4.70
2023-04-19T23:54:40.741Z,4.75
2023-04-19T23:57:27.511Z,4.82
